sensor_id;sensor_type;location;lat;lon;timestamp;temperature;humidity
8820;DHT22;4446;50.876;4.736;2022-09-01T00:02:12;17.20;99.90
8820;DHT22;4446;50.876;4.736;2022-09-01T00:04:42;17.10;99.90
8820;DHT22;4446;50.876;4.736;2022-09-01T00:07:12;17.00;99.90
8820;DHT22;4446;50.876;4.736;2022-09-01T00:09:39;17.00;99.90
8820;DHT22;4446;50.876;4.736;2022-09-01T00:12:08;16.90;99.90
8820;DHT22;4446;50.876;4.736;2022-09-01T00:14:38;16.90;99.90
8820;DHT22;4446;50.876;4.736;2022-09-01T00:17:09;16.90;99.90
8820;DHT22;4446;50.876;4.736;2022-09-01T00:19:37;16.90;99.90
8820;DHT22;4446;50.876;4.736;2022-09-01T00:22:05;16.90;99.90
8820;DHT22;4446;50.876;4.736;2022-09-01T00:24:34;16.90;99.90
8820;DHT22;4446;50.876;4.736;2022-09-01T00:27:01;16.80;99.90
8820;DHT22;4446;50.876;4.736;2022-09-01T00:29:28;16.80;99.90
8820;DHT22;4446;50.876;4.736;2022-09-01T00:31:55;16.70;99.90
8820;DHT22;4446;50.876;4.736;2022-09-01T00:34:22;16.50;99.90
8820;DHT22;4446;50.876;4.736;2022-09-01T00:36:49;16.50;99.90
8820;DHT22;4446;50.876;4.736;2022-09-01T00:39:16;16.40;99.90
8820;DHT22;4446;50.876;4.736;2022-09-01T00:41:45;16.40;99.90
8820;DHT22;4446;50.876;4.736;2022-09-01T00:44:16;16.30;99.90
8820;DHT22;4446;50.876;4.736;2022-09-01T00:46:49;16.30;99.90
8820;DHT22;4446;50.876;4.736;2022-09-01T00:49:26;16.20;99.90
8820;DHT22;4446;50.876;4.736;2022-09-01T00:51:56;16.20;99.90
8820;DHT22;4446;50.876;4.736;2022-09-01T00:54:28;16.20;99.90
8820;DHT22;4446;50.876;4.736;2022-09-01T00:56:58;16.10;99.90
8820;DHT22;4446;50.876;4.736;2022-09-01T00:59:26;16.10;99.90
8820;DHT22;4446;50.876;4.736;2022-09-01T01:01:54;16.10;99.90
8820;DHT22;4446;50.876;4.736;2022-09-01T01:04:22;16.10;99.90
8820;DHT22;4446;50.876;4.736;2022-09-01T01:06:52;16.00;99.90
8820;DHT22;4446;50.876;4.736;2022-09-01T01:09:25;15.90;99.90
8820;DHT22;4446;50.876;4.736;2022-09-01T01:11:52;15.90;99.90
8820;DHT22;4446;50.876;4.736;2022-09-01T01:14:20;15.90;99.90
8820;DHT22;4446;50.876;4.736;2022-09-01T01:16:48;15.80;99.90
8820;DHT22;4446;50.876;4.736;2022-09-01T01:19:21;15.70;99.90
8820;DHT22;4446;50.876;4.736;2022-09-01T01:22:09;15.60;99.90
8820;DHT22;4446;50.876;4.736;2022-09-01T01:24:57;15.60;99.90
8820;DHT22;4446;50.876;4.736;2022-09-01T01:27:30;15.50;99.90
8820;DHT22;4446;50.876;4.736;2022-09-01T01:30:00;15.40;99.90
8820;DHT22;4446;50.876;4.736;2022-09-01T01:32:27;15.30;99.90
8820;DHT22;4446;50.876;4.736;2022-09-01T01:34:54;15.30;99.90
8820;DHT22;4446;50.876;4.736;2022-09-01T01:37:22;15.30;99.90
8820;DHT22;4446;50.876;4.736;2022-09-01T01:39:50;15.20;99.90
8820;DHT22;4446;50.876;4.736;2022-09-01T01:42:18;15.10;99.90
8820;DHT22;4446;50.876;4.736;2022-09-01T01:44:45;15.10;99.90
8820;DHT22;4446;50.876;4.736;2022-09-01T01:47:13;15.10;99.90
8820;DHT22;4446;50.876;4.736;2022-09-01T01:49:44;15.10;99.90
8820;DHT22;4446;50.876;4.736;2022-09-01T01:52:12;15.00;99.90
8820;DHT22;4446;50.876;4.736;2022-09-01T01:54:42;14.90;99.90
8820;DHT22;4446;50.876;4.736;2022-09-01T01:57:11;14.90;99.90
8820;DHT22;4446;50.876;4.736;2022-09-01T01:59:44;14.90;99.90
8820;DHT22;4446;50.876;4.736;2022-09-01T02:02:11;14.80;99.90
8820;DHT22;4446;50.876;4.736;2022-09-01T02:04:39;14.80;99.90
8820;DHT22;4446;50.876;4.736;2022-09-01T02:07:09;14.70;99.90
8820;DHT22;4446;50.876;4.736;2022-09-01T02:09:37;14.70;99.90
8820;DHT22;4446;50.876;4.736;2022-09-01T02:12:06;14.80;99.90
8820;DHT22;4446;50.876;4.736;2022-09-01T02:14:34;14.70;99.90
8820;DHT22;4446;50.876;4.736;2022-09-01T02:17:02;14.70;99.90
8820;DHT22;4446;50.876;4.736;2022-09-01T02:19:30;14.70;99.90
8820;DHT22;4446;50.876;4.736;2022-09-01T02:22:05;14.70;99.90
8820;DHT22;4446;50.876;4.736;2022-09-01T02:24:35;14.70;99.90
8820;DHT22;4446;50.876;4.736;2022-09-01T02:27:03;14.60;99.90
8820;DHT22;4446;50.876;4.736;2022-09-01T02:29:31;14.60;99.90
8820;DHT22;4446;50.876;4.736;2022-09-01T02:31:58;14.70;99.90
8820;DHT22;4446;50.876;4.736;2022-09-01T02:34:26;14.80;99.90
8820;DHT22;4446;50.876;4.736;2022-09-01T02:36:55;14.90;99.90
8820;DHT22;4446;50.876;4.736;2022-09-01T02:39:24;15.00;99.90
8820;DHT22;4446;50.876;4.736;2022-09-01T02:41:52;15.20;99.90
8820;DHT22;4446;50.876;4.736;2022-09-01T02:44:19;15.30;99.90
8820;DHT22;4446;50.876;4.736;2022-09-01T02:46:49;15.40;99.90
8820;DHT22;4446;50.876;4.736;2022-09-01T02:49:18;15.50;99.90
8820;DHT22;4446;50.876;4.736;2022-09-01T02:51:56;15.60;99.90
8820;DHT22;4446;50.876;4.736;2022-09-01T02:54:24;15.80;99.90
8820;DHT22;4446;50.876;4.736;2022-09-01T02:56:52;15.80;99.90
8820;DHT22;4446;50.876;4.736;2022-09-01T02:59:21;15.90;99.90
8820;DHT22;4446;50.876;4.736;2022-09-01T03:01:50;15.80;99.90
8820;DHT22;4446;50.876;4.736;2022-09-01T03:04:19;15.80;99.90
8820;DHT22;4446;50.876;4.736;2022-09-01T03:06:47;15.70;99.90
8820;DHT22;4446;50.876;4.736;2022-09-01T03:09:17;15.70;99.90
8820;DHT22;4446;50.876;4.736;2022-09-01T03:11:47;15.60;99.90
8820;DHT22;4446;50.876;4.736;2022-09-01T03:14:14;15.50;99.90
8820;DHT22;4446;50.876;4.736;2022-09-01T03:16:41;15.40;99.90
8820;DHT22;4446;50.876;4.736;2022-09-01T03:19:09;15.30;99.90
8820;DHT22;4446;50.876;4.736;2022-09-01T03:21:38;15.20;99.90
8820;DHT22;4446;50.876;4.736;2022-09-01T03:24:06;15.00;99.90
8820;DHT22;4446;50.876;4.736;2022-09-01T03:26:35;14.90;99.90
8820;DHT22;4446;50.876;4.736;2022-09-01T03:29:03;14.80;99.90
8820;DHT22;4446;50.876;4.736;2022-09-01T03:31:31;14.70;99.90
8820;DHT22;4446;50.876;4.736;2022-09-01T03:33:58;14.60;99.90
8820;DHT22;4446;50.876;4.736;2022-09-01T03:36:26;14.50;99.90
8820;DHT22;4446;50.876;4.736;2022-09-01T03:38:55;14.40;99.90
8820;DHT22;4446;50.876;4.736;2022-09-01T03:41:24;14.20;99.90
8820;DHT22;4446;50.876;4.736;2022-09-01T03:43:54;14.20;99.90
8820;DHT22;4446;50.876;4.736;2022-09-01T03:46:23;14.10;99.90
8820;DHT22;4446;50.876;4.736;2022-09-01T03:48:54;14.00;99.90
8820;DHT22;4446;50.876;4.736;2022-09-01T03:51:24;14.00;99.90
8820;DHT22;4446;50.876;4.736;2022-09-01T03:53:54;13.90;99.90
8820;DHT22;4446;50.876;4.736;2022-09-01T03:56:22;13.80;99.90
8820;DHT22;4446;50.876;4.736;2022-09-01T03:58:54;13.80;99.90
8820;DHT22;4446;50.876;4.736;2022-09-01T04:01:22;13.70;99.90
8820;DHT22;4446;50.876;4.736;2022-09-01T04:03:49;13.60;99.90
8820;DHT22;4446;50.876;4.736;2022-09-01T04:06:17;13.60;99.90
8820;DHT22;4446;50.876;4.736;2022-09-01T04:08:46;13.60;99.90
8820;DHT22;4446;50.876;4.736;2022-09-01T04:11:15;13.60;99.90
8820;DHT22;4446;50.876;4.736;2022-09-01T04:13:43;13.50;99.90
8820;DHT22;4446;50.876;4.736;2022-09-01T04:16:21;13.50;99.90
8820;DHT22;4446;50.876;4.736;2022-09-01T04:19:06;13.50;99.90
8820;DHT22;4446;50.876;4.736;2022-09-01T04:21:41;13.50;99.90
8820;DHT22;4446;50.876;4.736;2022-09-01T04:24:09;13.50;99.90
8820;DHT22;4446;50.876;4.736;2022-09-01T04:26:38;13.40;99.90
8820;DHT22;4446;50.876;4.736;2022-09-01T04:29:06;13.40;99.90
8820;DHT22;4446;50.876;4.736;2022-09-01T04:31:37;13.30;99.90
8820;DHT22;4446;50.876;4.736;2022-09-01T04:34:05;13.30;99.90
8820;DHT22;4446;50.876;4.736;2022-09-01T04:36:39;13.30;99.90
8820;DHT22;4446;50.876;4.736;2022-09-01T04:39:08;13.30;99.90
8820;DHT22;4446;50.876;4.736;2022-09-01T04:41:39;13.30;99.90
8820;DHT22;4446;50.876;4.736;2022-09-01T04:44:07;13.20;99.90
8820;DHT22;4446;50.876;4.736;2022-09-01T04:46:37;13.20;99.90
8820;DHT22;4446;50.876;4.736;2022-09-01T04:49:08;13.20;99.90
8820;DHT22;4446;50.876;4.736;2022-09-01T04:51:37;13.20;99.90
8820;DHT22;4446;50.876;4.736;2022-09-01T04:54:05;13.10;99.90
8820;DHT22;4446;50.876;4.736;2022-09-01T04:56:37;13.10;99.90
8820;DHT22;4446;50.876;4.736;2022-09-01T04:59:04;13.10;99.90
8820;DHT22;4446;50.876;4.736;2022-09-01T05:01:34;13.00;99.90
8820;DHT22;4446;50.876;4.736;2022-09-01T05:04:09;13.00;99.90
8820;DHT22;4446;50.876;4.736;2022-09-01T05:06:39;13.00;99.90
8820;DHT22;4446;50.876;4.736;2022-09-01T05:09:08;13.00;99.90
8820;DHT22;4446;50.876;4.736;2022-09-01T05:11:36;13.00;99.90
8820;DHT22;4446;50.876;4.736;2022-09-01T05:14:04;13.00;99.90
8820;DHT22;4446;50.876;4.736;2022-09-01T05:16:32;13.00;99.90
8820;DHT22;4446;50.876;4.736;2022-09-01T05:19:00;13.00;99.90
8820;DHT22;4446;50.876;4.736;2022-09-01T05:21:28;13.10;99.90
8820;DHT22;4446;50.876;4.736;2022-09-01T05:23:58;13.10;99.90
8820;DHT22;4446;50.876;4.736;2022-09-01T05:26:28;13.10;99.90
8820;DHT22;4446;50.876;4.736;2022-09-01T05:28:58;13.20;99.90
8820;DHT22;4446;50.876;4.736;2022-09-01T05:31:28;13.20;99.90
8820;DHT22;4446;50.876;4.736;2022-09-01T05:33:59;13.20;99.90
8820;DHT22;4446;50.876;4.736;2022-09-01T05:36:29;13.20;99.90
8820;DHT22;4446;50.876;4.736;2022-09-01T05:38:58;13.30;99.90
8820;DHT22;4446;50.876;4.736;2022-09-01T05:41:26;13.30;99.90
8820;DHT22;4446;50.876;4.736;2022-09-01T05:43:54;13.40;99.90
8820;DHT22;4446;50.876;4.736;2022-09-01T05:46:23;13.40;99.90
8820;DHT22;4446;50.876;4.736;2022-09-01T05:48:52;13.40;99.90
8820;DHT22;4446;50.876;4.736;2022-09-01T05:51:25;13.50;99.90
8820;DHT22;4446;50.876;4.736;2022-09-01T05:53:56;13.60;99.90
8820;DHT22;4446;50.876;4.736;2022-09-01T05:56:25;13.60;99.90
8820;DHT22;4446;50.876;4.736;2022-09-01T05:58:52;13.70;99.90
8820;DHT22;4446;50.876;4.736;2022-09-01T06:01:22;13.80;99.90
8820;DHT22;4446;50.876;4.736;2022-09-01T06:03:49;13.90;99.90
8820;DHT22;4446;50.876;4.736;2022-09-01T06:06:19;13.90;99.90
8820;DHT22;4446;50.876;4.736;2022-09-01T06:08:48;14.00;99.90
8820;DHT22;4446;50.876;4.736;2022-09-01T06:11:16;14.10;99.90
8820;DHT22;4446;50.876;4.736;2022-09-01T06:13:44;14.20;99.90
8820;DHT22;4446;50.876;4.736;2022-09-01T06:16:12;14.30;99.90
8820;DHT22;4446;50.876;4.736;2022-09-01T06:18:41;14.40;99.90
8820;DHT22;4446;50.876;4.736;2022-09-01T06:21:10;14.60;99.90
8820;DHT22;4446;50.876;4.736;2022-09-01T06:23:40;14.70;99.90
8820;DHT22;4446;50.876;4.736;2022-09-01T06:26:16;14.90;99.90
8820;DHT22;4446;50.876;4.736;2022-09-01T06:28:43;15.00;99.90
8820;DHT22;4446;50.876;4.736;2022-09-01T06:31:10;15.20;99.90
8820;DHT22;4446;50.876;4.736;2022-09-01T06:33:37;15.40;99.90
8820;DHT22;4446;50.876;4.736;2022-09-01T06:36:06;15.50;99.90
8820;DHT22;4446;50.876;4.736;2022-09-01T06:38:34;15.70;99.90
8820;DHT22;4446;50.876;4.736;2022-09-01T06:41:03;15.80;99.90
8820;DHT22;4446;50.876;4.736;2022-09-01T06:43:39;15.90;99.90
8820;DHT22;4446;50.876;4.736;2022-09-01T06:46:07;16.00;99.90
8820;DHT22;4446;50.876;4.736;2022-09-01T06:48:35;16.10;99.90
8820;DHT22;4446;50.876;4.736;2022-09-01T06:51:03;16.20;99.90
8820;DHT22;4446;50.876;4.736;2022-09-01T06:53:31;16.30;99.90
8820;DHT22;4446;50.876;4.736;2022-09-01T06:55:59;16.30;99.90
8820;DHT22;4446;50.876;4.736;2022-09-01T06:58:27;16.50;99.90
8820;DHT22;4446;50.876;4.736;2022-09-01T07:00:57;16.60;99.90
8820;DHT22;4446;50.876;4.736;2022-09-01T07:03:25;16.70;99.90
8820;DHT22;4446;50.876;4.736;2022-09-01T07:05:52;16.80;99.90
8820;DHT22;4446;50.876;4.736;2022-09-01T07:08:20;16.90;99.90
8820;DHT22;4446;50.876;4.736;2022-09-01T07:10:50;17.00;99.90
8820;DHT22;4446;50.876;4.736;2022-09-01T07:13:20;17.10;99.90
8820;DHT22;4446;50.876;4.736;2022-09-01T07:15:51;17.20;99.90
8820;DHT22;4446;50.876;4.736;2022-09-01T07:18:20;17.30;99.90
8820;DHT22;4446;50.876;4.736;2022-09-01T07:20:50;17.40;99.90
8820;DHT22;4446;50.876;4.736;2022-09-01T07:23:18;17.50;99.90
8820;DHT22;4446;50.876;4.736;2022-09-01T07:25:48;17.60;99.90
8820;DHT22;4446;50.876;4.736;2022-09-01T07:28:23;17.80;99.90
8820;DHT22;4446;50.876;4.736;2022-09-01T07:30:54;17.90;99.90
8820;DHT22;4446;50.876;4.736;2022-09-01T07:33:23;18.00;99.90
8820;DHT22;4446;50.876;4.736;2022-09-01T07:35:52;18.10;99.90
8820;DHT22;4446;50.876;4.736;2022-09-01T07:38:20;18.20;99.90
8820;DHT22;4446;50.876;4.736;2022-09-01T07:40:47;18.30;99.90
8820;DHT22;4446;50.876;4.736;2022-09-01T07:43:19;18.40;99.90
8820;DHT22;4446;50.876;4.736;2022-09-01T07:45:49;18.50;99.90
8820;DHT22;4446;50.876;4.736;2022-09-01T07:48:18;18.60;99.90
8820;DHT22;4446;50.876;4.736;2022-09-01T07:50:50;18.70;99.90
8820;DHT22;4446;50.876;4.736;2022-09-01T07:53:20;18.80;99.90
8820;DHT22;4446;50.876;4.736;2022-09-01T07:55:48;19.00;99.90
8820;DHT22;4446;50.876;4.736;2022-09-01T07:58:16;19.10;99.90
8820;DHT22;4446;50.876;4.736;2022-09-01T08:00:44;19.20;99.90
8820;DHT22;4446;50.876;4.736;2022-09-01T08:03:12;19.30;99.90
8820;DHT22;4446;50.876;4.736;2022-09-01T08:05:39;19.40;99.90
8820;DHT22;4446;50.876;4.736;2022-09-01T08:08:09;19.50;99.90
8820;DHT22;4446;50.876;4.736;2022-09-01T08:10:38;19.60;99.90
8820;DHT22;4446;50.876;4.736;2022-09-01T08:13:06;19.70;99.90
8820;DHT22;4446;50.876;4.736;2022-09-01T08:15:33;19.80;99.90
8820;DHT22;4446;50.876;4.736;2022-09-01T08:18:00;19.90;99.90
8820;DHT22;4446;50.876;4.736;2022-09-01T08:20:27;20.00;99.90
8820;DHT22;4446;50.876;4.736;2022-09-01T08:22:55;20.10;99.90
8820;DHT22;4446;50.876;4.736;2022-09-01T08:25:24;20.20;99.90
8820;DHT22;4446;50.876;4.736;2022-09-01T08:27:51;20.30;99.90
8820;DHT22;4446;50.876;4.736;2022-09-01T08:30:18;20.40;99.90
8820;DHT22;4446;50.876;4.736;2022-09-01T08:32:45;20.50;99.90
8820;DHT22;4446;50.876;4.736;2022-09-01T08:35:14;20.60;99.90
8820;DHT22;4446;50.876;4.736;2022-09-01T08:37:42;20.70;99.90
8820;DHT22;4446;50.876;4.736;2022-09-01T08:40:12;20.70;99.90
8820;DHT22;4446;50.876;4.736;2022-09-01T08:42:51;20.80;99.90
8820;DHT22;4446;50.876;4.736;2022-09-01T08:45:24;20.90;99.90
8820;DHT22;4446;50.876;4.736;2022-09-01T08:47:55;21.00;99.90
8820;DHT22;4446;50.876;4.736;2022-09-01T08:50:24;21.10;99.90
8820;DHT22;4446;50.876;4.736;2022-09-01T08:52:57;21.10;99.90
8820;DHT22;4446;50.876;4.736;2022-09-01T08:55:30;21.30;99.90
8820;DHT22;4446;50.876;4.736;2022-09-01T08:58:01;21.30;99.90
8820;DHT22;4446;50.876;4.736;2022-09-01T09:00:36;21.40;99.90
8820;DHT22;4446;50.876;4.736;2022-09-01T09:03:15;21.50;99.90
8820;DHT22;4446;50.876;4.736;2022-09-01T09:06:02;21.60;99.90
8820;DHT22;4446;50.876;4.736;2022-09-01T09:08:50;21.70;99.90
8820;DHT22;4446;50.876;4.736;2022-09-01T09:14:16;22.00;99.90
8820;DHT22;4446;50.876;4.736;2022-09-01T09:16:47;22.00;99.90
8820;DHT22;4446;50.876;4.736;2022-09-01T09:19:18;22.10;99.90
8820;DHT22;4446;50.876;4.736;2022-09-01T09:21:48;22.20;99.90
8820;DHT22;4446;50.876;4.736;2022-09-01T09:24:20;22.30;99.90
8820;DHT22;4446;50.876;4.736;2022-09-01T09:26:49;22.40;99.90
8820;DHT22;4446;50.876;4.736;2022-09-01T09:29:18;22.50;99.90
8820;DHT22;4446;50.876;4.736;2022-09-01T09:31:47;22.60;99.90
8820;DHT22;4446;50.876;4.736;2022-09-01T09:34:31;22.70;99.90
8820;DHT22;4446;50.876;4.736;2022-09-01T09:37:18;22.70;99.90
8820;DHT22;4446;50.876;4.736;2022-09-01T09:40:06;22.80;99.90
8820;DHT22;4446;50.876;4.736;2022-09-01T09:42:38;22.90;99.90
8820;DHT22;4446;50.876;4.736;2022-09-01T09:45:20;23.00;99.90
8820;DHT22;4446;50.876;4.736;2022-09-01T09:47:48;23.10;99.90
8820;DHT22;4446;50.876;4.736;2022-09-01T09:50:22;23.20;99.90
8820;DHT22;4446;50.876;4.736;2022-09-01T09:52:51;23.30;99.90
8820;DHT22;4446;50.876;4.736;2022-09-01T09:55:24;23.40;99.90
8820;DHT22;4446;50.876;4.736;2022-09-01T09:57:54;23.50;99.90
8820;DHT22;4446;50.876;4.736;2022-09-01T10:00:25;23.50;99.90
8820;DHT22;4446;50.876;4.736;2022-09-01T10:02:55;23.50;99.90
8820;DHT22;4446;50.876;4.736;2022-09-01T10:05:39;23.50;99.90
8820;DHT22;4446;50.876;4.736;2022-09-01T10:08:09;23.60;99.90
8820;DHT22;4446;50.876;4.736;2022-09-01T10:10:39;23.60;99.90
8820;DHT22;4446;50.876;4.736;2022-09-01T10:13:10;23.60;99.90
8820;DHT22;4446;50.876;4.736;2022-09-01T10:15:40;23.60;99.90
8820;DHT22;4446;50.876;4.736;2022-09-01T10:18:14;23.70;99.90
8820;DHT22;4446;50.876;4.736;2022-09-01T10:20:45;23.70;99.90
8820;DHT22;4446;50.876;4.736;2022-09-01T10:23:14;23.80;99.90
8820;DHT22;4446;50.876;4.736;2022-09-01T10:25:42;23.80;99.90
8820;DHT22;4446;50.876;4.736;2022-09-01T10:28:14;23.80;99.90
8820;DHT22;4446;50.876;4.736;2022-09-01T10:30:46;23.90;99.90
8820;DHT22;4446;50.876;4.736;2022-09-01T10:33:16;24.00;99.90
8820;DHT22;4446;50.876;4.736;2022-09-01T10:35:45;24.00;99.90
8820;DHT22;4446;50.876;4.736;2022-09-01T10:38:15;24.10;99.90
8820;DHT22;4446;50.876;4.736;2022-09-01T10:40:44;24.10;99.90
8820;DHT22;4446;50.876;4.736;2022-09-01T10:43:33;24.20;99.90
8820;DHT22;4446;50.876;4.736;2022-09-01T10:48:52;24.30;99.90
8820;DHT22;4446;50.876;4.736;2022-09-01T10:51:42;24.40;99.90
8820;DHT22;4446;50.876;4.736;2022-09-01T10:54:49;24.40;99.90
8820;DHT22;4446;50.876;4.736;2022-09-01T10:57:36;24.50;99.90
8820;DHT22;4446;50.876;4.736;2022-09-01T11:09:26;24.80;99.90
8820;DHT22;4446;50.876;4.736;2022-09-01T11:14:56;24.70;99.90
8820;DHT22;4446;50.876;4.736;2022-09-01T11:17:24;24.80;99.90
8820;DHT22;4446;50.876;4.736;2022-09-01T11:20:06;24.90;99.90
8820;DHT22;4446;50.876;4.736;2022-09-01T11:22:38;24.80;99.90
8820;DHT22;4446;50.876;4.736;2022-09-01T11:31:14;24.80;99.90
8820;DHT22;4446;50.876;4.736;2022-09-01T11:33:52;24.80;99.90
8820;DHT22;4446;50.876;4.736;2022-09-01T11:36:28;24.90;99.90
8820;DHT22;4446;50.876;4.736;2022-09-01T11:39:03;25.00;99.90
8820;DHT22;4446;50.876;4.736;2022-09-01T11:41:41;25.00;99.90
8820;DHT22;4446;50.876;4.736;2022-09-01T11:44:14;25.20;99.90
8820;DHT22;4446;50.876;4.736;2022-09-01T11:46:44;25.30;99.90
8820;DHT22;4446;50.876;4.736;2022-09-01T11:49:26;25.30;99.90
8820;DHT22;4446;50.876;4.736;2022-09-01T11:51:56;25.20;99.90
8820;DHT22;4446;50.876;4.736;2022-09-01T11:54:24;25.30;99.90
8820;DHT22;4446;50.876;4.736;2022-09-01T11:56:52;25.40;99.90
8820;DHT22;4446;50.876;4.736;2022-09-01T11:59:33;25.60;99.90
8820;DHT22;4446;50.876;4.736;2022-09-01T12:02:00;26.00;99.90
8820;DHT22;4446;50.876;4.736;2022-09-01T12:04:31;26.10;99.90
8820;DHT22;4446;50.876;4.736;2022-09-01T12:07:03;26.10;99.90
8820;DHT22;4446;50.876;4.736;2022-09-01T12:09:36;26.20;99.90
8820;DHT22;4446;50.876;4.736;2022-09-01T12:12:05;26.20;99.90
8820;DHT22;4446;50.876;4.736;2022-09-01T12:14:34;26.30;99.90
8820;DHT22;4446;50.876;4.736;2022-09-01T12:17:03;26.30;99.90
8820;DHT22;4446;50.876;4.736;2022-09-01T12:19:33;26.40;99.90
8820;DHT22;4446;50.876;4.736;2022-09-01T12:22:11;26.50;99.90
8820;DHT22;4446;50.876;4.736;2022-09-01T12:24:44;26.60;99.90
8820;DHT22;4446;50.876;4.736;2022-09-01T12:27:12;26.70;99.90
8820;DHT22;4446;50.876;4.736;2022-09-01T12:29:40;26.80;99.90
8820;DHT22;4446;50.876;4.736;2022-09-01T12:32:07;26.90;99.90
8820;DHT22;4446;50.876;4.736;2022-09-01T12:34:38;26.90;99.90
8820;DHT22;4446;50.876;4.736;2022-09-01T12:37:10;26.80;99.90
8820;DHT22;4446;50.876;4.736;2022-09-01T12:39:40;26.90;99.90
8820;DHT22;4446;50.876;4.736;2022-09-01T12:42:11;27.10;99.90
8820;DHT22;4446;50.876;4.736;2022-09-01T12:44:50;27.40;99.90
8820;DHT22;4446;50.876;4.736;2022-09-01T12:47:47;27.50;99.90
8820;DHT22;4446;50.876;4.736;2022-09-01T12:50:41;27.50;99.70
8820;DHT22;4446;50.876;4.736;2022-09-01T12:53:37;27.50;99.50
8820;DHT22;4446;50.876;4.736;2022-09-01T12:56:17;27.50;99.20
8820;DHT22;4446;50.876;4.736;2022-09-01T12:58:47;27.40;99.30
8820;DHT22;4446;50.876;4.736;2022-09-01T13:01:27;27.30;99.40
8820;DHT22;4446;50.876;4.736;2022-09-01T13:04:14;27.30;98.90
8820;DHT22;4446;50.876;4.736;2022-09-01T13:06:41;27.30;99.00
8820;DHT22;4446;50.876;4.736;2022-09-01T13:09:09;27.40;99.40
8820;DHT22;4446;50.876;4.736;2022-09-01T13:11:37;27.50;98.70
8820;DHT22;4446;50.876;4.736;2022-09-01T13:14:04;27.50;97.70
8820;DHT22;4446;50.876;4.736;2022-09-01T13:16:33;27.40;97.90
8820;DHT22;4446;50.876;4.736;2022-09-01T13:19:01;27.30;97.50
8820;DHT22;4446;50.876;4.736;2022-09-01T13:21:28;27.40;97.60
8820;DHT22;4446;50.876;4.736;2022-09-01T13:23:56;27.40;97.30
8820;DHT22;4446;50.876;4.736;2022-09-01T13:26:24;27.60;97.40
8820;DHT22;4446;50.876;4.736;2022-09-01T13:28:53;27.70;97.60
8820;DHT22;4446;50.876;4.736;2022-09-01T13:31:20;27.80;97.00
8820;DHT22;4446;50.876;4.736;2022-09-01T13:33:48;27.80;96.40
8820;DHT22;4446;50.876;4.736;2022-09-01T13:36:15;27.80;96.10
8820;DHT22;4446;50.876;4.736;2022-09-01T13:38:44;27.90;96.50
8820;DHT22;4446;50.876;4.736;2022-09-01T13:41:11;28.00;96.20
8820;DHT22;4446;50.876;4.736;2022-09-01T13:43:41;28.20;95.80
8820;DHT22;4446;50.876;4.736;2022-09-01T13:46:08;28.10;95.20
8820;DHT22;4446;50.876;4.736;2022-09-01T13:48:36;28.00;94.80
8820;DHT22;4446;50.876;4.736;2022-09-01T13:51:03;28.00;96.20
8820;DHT22;4446;50.876;4.736;2022-09-01T13:53:31;28.10;95.00
8820;DHT22;4446;50.876;4.736;2022-09-01T13:55:58;28.20;95.10
8820;DHT22;4446;50.876;4.736;2022-09-01T13:58:25;28.10;94.50
8820;DHT22;4446;50.876;4.736;2022-09-01T14:00:53;28.00;94.70
8820;DHT22;4446;50.876;4.736;2022-09-01T14:03:22;28.20;95.50
8820;DHT22;4446;50.876;4.736;2022-09-01T14:05:50;28.60;94.10
8820;DHT22;4446;50.876;4.736;2022-09-01T14:08:19;29.20;93.60
8820;DHT22;4446;50.876;4.736;2022-09-01T14:10:49;29.50;93.30
8820;DHT22;4446;50.876;4.736;2022-09-01T14:13:17;29.80;93.10
8820;DHT22;4446;50.876;4.736;2022-09-01T14:15:45;30.20;92.40
8820;DHT22;4446;50.876;4.736;2022-09-01T14:18:14;30.40;91.70
8820;DHT22;4446;50.876;4.736;2022-09-01T14:20:44;30.60;91.50
8820;DHT22;4446;50.876;4.736;2022-09-01T14:23:12;30.60;91.10
8820;DHT22;4446;50.876;4.736;2022-09-01T14:25:44;30.80;90.80
8820;DHT22;4446;50.876;4.736;2022-09-01T14:28:11;30.50;90.30
8820;DHT22;4446;50.876;4.736;2022-09-01T14:30:40;30.30;90.20
8820;DHT22;4446;50.876;4.736;2022-09-01T14:33:08;30.60;89.10
8820;DHT22;4446;50.876;4.736;2022-09-01T14:35:39;30.40;89.80
8820;DHT22;4446;50.876;4.736;2022-09-01T14:38:07;30.60;88.10
8820;DHT22;4446;50.876;4.736;2022-09-01T14:40:35;30.60;88.60
8820;DHT22;4446;50.876;4.736;2022-09-01T14:43:04;30.70;89.00
8820;DHT22;4446;50.876;4.736;2022-09-01T14:45:32;30.70;86.90
8820;DHT22;4446;50.876;4.736;2022-09-01T14:48:01;30.70;86.90
8820;DHT22;4446;50.876;4.736;2022-09-01T14:50:29;30.40;87.10
8820;DHT22;4446;50.876;4.736;2022-09-01T14:53:01;30.50;86.50
8820;DHT22;4446;50.876;4.736;2022-09-01T14:55:29;30.70;86.20
8820;DHT22;4446;50.876;4.736;2022-09-01T14:57:57;31.00;86.90
8820;DHT22;4446;50.876;4.736;2022-09-01T15:00:25;31.40;85.60
8820;DHT22;4446;50.876;4.736;2022-09-01T15:02:53;31.40;85.00
8820;DHT22;4446;50.876;4.736;2022-09-01T15:05:21;31.40;83.30
8820;DHT22;4446;50.876;4.736;2022-09-01T15:07:48;31.40;82.20
8820;DHT22;4446;50.876;4.736;2022-09-01T15:10:19;31.30;82.90
8820;DHT22;4446;50.876;4.736;2022-09-01T15:12:48;31.00;81.70
8820;DHT22;4446;50.876;4.736;2022-09-01T15:15:16;31.00;81.20
8820;DHT22;4446;50.876;4.736;2022-09-01T15:17:43;31.30;80.80
8820;DHT22;4446;50.876;4.736;2022-09-01T15:20:10;31.40;79.70
8820;DHT22;4446;50.876;4.736;2022-09-01T15:22:55;31.60;81.00
8820;DHT22;4446;50.876;4.736;2022-09-01T15:25:23;32.00;81.20
8820;DHT22;4446;50.876;4.736;2022-09-01T15:27:50;32.50;78.80
8820;DHT22;4446;50.876;4.736;2022-09-01T15:30:17;32.30;78.80
8820;DHT22;4446;50.876;4.736;2022-09-01T15:32:48;32.40;78.80
8820;DHT22;4446;50.876;4.736;2022-09-01T15:35:19;32.30;78.40
8820;DHT22;4446;50.876;4.736;2022-09-01T15:37:47;32.00;78.60
8820;DHT22;4446;50.876;4.736;2022-09-01T15:40:15;31.90;78.50
8820;DHT22;4446;50.876;4.736;2022-09-01T15:42:44;32.10;77.90
8820;DHT22;4446;50.876;4.736;2022-09-01T15:45:13;32.10;76.30
8820;DHT22;4446;50.876;4.736;2022-09-01T15:47:41;31.90;75.80
8820;DHT22;4446;50.876;4.736;2022-09-01T15:50:10;31.90;76.70
8820;DHT22;4446;50.876;4.736;2022-09-01T15:52:47;31.80;77.50
8820;DHT22;4446;50.876;4.736;2022-09-01T15:55:16;31.70;78.10
8820;DHT22;4446;50.876;4.736;2022-09-01T15:57:44;31.70;76.90
8820;DHT22;4446;50.876;4.736;2022-09-01T16:00:12;31.20;76.00
8820;DHT22;4446;50.876;4.736;2022-09-01T16:02:40;31.00;76.30
8820;DHT22;4446;50.876;4.736;2022-09-01T16:05:08;30.70;76.80
8820;DHT22;4446;50.876;4.736;2022-09-01T16:07:36;30.90;76.60
8820;DHT22;4446;50.876;4.736;2022-09-01T16:10:04;31.20;75.50
8820;DHT22;4446;50.876;4.736;2022-09-01T16:12:38;31.20;74.60
8820;DHT22;4446;50.876;4.736;2022-09-01T16:15:10;31.60;74.80
8820;DHT22;4446;50.876;4.736;2022-09-01T16:17:46;31.80;75.70
8820;DHT22;4446;50.876;4.736;2022-09-01T16:20:18;32.20;74.50
8820;DHT22;4446;50.876;4.736;2022-09-01T16:22:53;32.50;74.40
8820;DHT22;4446;50.876;4.736;2022-09-01T16:25:27;32.40;74.20
8820;DHT22;4446;50.876;4.736;2022-09-01T16:27:56;32.20;74.30
8820;DHT22;4446;50.876;4.736;2022-09-01T16:30:28;32.20;74.10
8820;DHT22;4446;50.876;4.736;2022-09-01T16:32:57;32.00;74.50
8820;DHT22;4446;50.876;4.736;2022-09-01T16:35:29;32.00;74.00
8820;DHT22;4446;50.876;4.736;2022-09-01T16:38:08;32.20;74.00
8820;DHT22;4446;50.876;4.736;2022-09-01T16:40:42;32.20;74.50
8820;DHT22;4446;50.876;4.736;2022-09-01T16:43:18;32.10;74.60
8820;DHT22;4446;50.876;4.736;2022-09-01T16:45:56;31.90;74.50
8820;DHT22;4446;50.876;4.736;2022-09-01T16:48:32;31.90;75.50